Time;durP1;ratioP1;P1;durP2;ratioP2;P2;SDS_P1;SDS_P2;PMS_P1;PMS_P2;Temp;Humidity;BMP_temperature;BMP_pressure;BME280_temperature;BME280_humidity;BME280_pressure;Samples;Min_cycle;Max_cycle;Signal;HPM_P1;HPM_P2
2023/08/13 00:01:27;;;;;;;5.57;3.55;;;;;;;21.06;nan;61766.00;5012304;28;20243;-64
2023/08/13 00:03:53;;;;;;;5.38;3.17;;;;;;;21.15;nan;61760.63;5012426;28;20204;-64
2023/08/13 00:06:18;;;;;;;6.32;3.35;;;;;;;21.06;nan;61734.81;5012276;28;20225;-64
2023/08/13 00:08:43;;;;;;;6.32;3.45;;;;;;;21.23;nan;61725.53;5012200;28;20683;-64
2023/08/13 00:11:13;;;;;;;5.03;3.08;;;;;;;21.15;nan;61917.13;5012252;28;20172;-64
2023/08/13 00:13:39;;;;;;;5.90;3.45;;;;;;;21.08;nan;61701.28;5012312;28;20167;-64
2023/08/13 00:16:06;;;;;;;4.30;3.28;;;;;;;21.30;nan;61793.25;5010952;28;20175;-64
2023/08/13 00:18:32;;;;;;;5.65;3.88;;;;;;;21.26;nan;61790.75;5012171;28;20255;-64
2023/08/13 00:20:58;;;;;;;5.22;3.75;;;;;;;21.13;nan;61753.72;5012206;28;20207;-64
2023/08/13 00:23:23;;;;;;;8.13;4.15;;;;;;;20.87;nan;61612.53;5012487;28;20172;-65
2023/08/13 00:25:49;;;;;;;8.52;4.07;;;;;;;21.04;nan;61727.91;5011893;28;20183;-64
2023/08/13 00:28:14;;;;;;;6.13;3.83;;;;;;;20.86;nan;61854.97;5012066;28;20753;-65
2023/08/13 00:30:39;;;;;;;7.78;3.63;;;;;;;21.01;nan;61786.31;5012102;28;20183;-64
2023/08/13 00:33:05;;;;;;;5.72;3.58;;;;;;;20.88;nan;61709.78;5011780;28;20180;-64
2023/08/13 00:35:30;;;;;;;6.68;3.92;;;;;;;20.88;nan;61784.53;5012156;28;20170;-64
2023/08/13 00:37:55;;;;;;;6.57;3.78;;;;;;;20.67;nan;61706.72;5012111;28;20187;-65
2023/08/13 00:40:21;;;;;;;5.72;3.70;;;;;;;20.73;nan;61679.78;5012207;28;20227;-65
2023/08/13 00:42:46;;;;;;;6.40;3.85;;;;;;;20.67;nan;61953.41;5012150;28;20171;-64
2023/08/13 00:45:12;;;;;;;6.30;4.20;;;;;;;20.51;nan;61746.28;5012130;28;20540;-65
2023/08/13 00:47:37;;;;;;;9.15;4.20;;;;;;;20.27;nan;61766.28;5012009;28;20562;-65
2023/08/13 00:50:04;;;;;;;6.10;4.07;;;;;;;20.42;nan;61683.56;5012001;28;20179;-64
2023/08/13 00:52:30;;;;;;;8.23;3.72;;;;;;;20.29;nan;61674.59;5011632;28;20168;-64
2023/08/13 00:54:56;;;;;;;6.53;3.70;;;;;;;20.24;nan;61640.94;5011264;28;20566;-65
2023/08/13 00:57:22;;;;;;;7.72;4.20;;;;;;;20.00;nan;61620.94;5012036;28;20176;-64
2023/08/13 00:59:50;;;;;;;6.13;3.72;;;;;;;19.96;nan;61725.34;5011606;28;20258;-65
2023/08/13 01:02:15;;;;;;;7.70;3.83;;;;;;;19.83;nan;61732.47;5011788;28;20178;-64
2023/08/13 01:04:41;;;;;;;5.30;3.72;;;;;;;19.82;nan;61580.38;5011773;28;20259;-64
2023/08/13 01:07:26;;;;;;;5.85;3.67;;;;;;;20.10;nan;61651.00;5011797;28;20169;-64
2023/08/13 01:10:14;;;;;;;6.70;4.13;;;;;;;20.00;nan;61701.91;5012218;28;20199;-64
2023/08/13 01:12:44;;;;;;;5.75;3.47;;;;;;;19.97;nan;61664.81;5011836;28;20200;-64
2023/08/13 01:15:28;;;;;;;8.02;4.03;;;;;;;19.97;nan;61698.53;5011693;28;20176;-63
2023/08/13 01:17:56;;;;;;;6.45;4.15;;;;;;;19.80;nan;61572.91;5011588;28;20175;-63
2023/08/13 01:20:51;;;;;;;5.47;4.00;;;;;;;19.63;nan;61621.06;5014410;28;20523;-63
2023/08/13 01:23:16;;;;;;;6.03;4.10;;;;;;;19.30;nan;61509.66;5006452;28;20219;-63
2023/08/13 01:25:58;;;;;;;5.68;3.85;;;;;;;19.35;nan;61623.56;5014800;28;20329;-64
2023/08/13 01:28:29;;;;;;;6.70;3.97;;;;;;;19.32;nan;61553.38;5015289;28;20358;-64
2023/08/13 01:31:01;;;;;;;6.00;3.65;;;;;;;19.26;nan;61499.97;5015388;28;20172;-64
2023/08/13 01:33:33;;;;;;;6.07;4.28;;;;;;;19.24;nan;61624.03;5015164;28;20215;-63
2023/08/13 01:36:04;;;;;;;7.38;3.58;;;;;;;19.18;nan;61627.63;5015144;28;20172;-64
2023/08/13 01:38:33;;;;;;;6.80;3.97;;;;;;;18.92;nan;61451.13;5015041;28;20255;-63
2023/08/13 01:41:02;;;;;;;5.53;3.83;;;;;;;18.98;nan;61735.53;5014957;28;20752;-63
2023/08/13 01:43:27;;;;;;;7.63;4.50;;;;;;;19.03;nan;61571.75;5015332;28;20211;-63
2023/08/13 01:45:53;;;;;;;6.40;4.22;;;;;;;15.83;nan;62093.41;4958794;28;20267;-64
2023/08/13 01:48:18;;;;;;;6.47;3.90;;;;;;;18.67;nan;61399.56;4477323;28;21047;-65
2023/08/13 01:50:44;;;;;;;6.43;3.95;;;;;;;18.71;nan;61580.66;5014248;28;20184;-63
2023/08/13 01:53:09;;;;;;;7.72;4.65;;;;;;;18.91;nan;61499.19;5014843;28;20558;-63
2023/08/13 01:55:35;;;;;;;8.88;4.40;;;;;;;18.79;nan;61452.53;5014724;28;20168;-63
2023/08/13 01:58:00;;;;;;;4.90;3.70;;;;;;;18.80;nan;61486.75;5014441;28;20196;-64
2023/08/13 02:00:26;;;;;;;6.25;3.92;;;;;;;18.54;nan;61536.06;5013849;28;20298;-64
2023/08/13 02:02:51;;;;;;;6.43;4.10;;;;;;;16.22;nan;61212.00;5014756;28;20180;-64
2023/08/13 02:05:17;;;;;;;7.40;3.90;;;;;;;18.42;nan;61416.41;5014793;28;20631;-64
2023/08/13 02:07:42;;;;;;;6.03;3.70;;;;;;;18.50;nan;61453.91;5014089;28;20171;-64
2023/08/13 02:10:08;;;;;;;5.80;4.03;;;;;;;18.42;nan;61429.34;5014183;28;20172;-63
2023/08/13 02:12:33;;;;;;;8.02;3.63;;;;;;;18.50;nan;61658.28;5012754;28;20538;-64
2023/08/13 02:14:59;;;;;;;5.47;3.80;;;;;;;18.24;nan;61364.44;5014034;28;20691;-64
2023/08/13 02:17:24;;;;;;;7.05;4.30;;;;;;;18.17;nan;61418.63;5013882;28;20199;-64
2023/08/13 02:19:50;;;;;;;6.75;4.20;;;;;;;18.02;nan;61497.88;5012985;28;20204;-64
2023/08/13 02:22:15;;;;;;;6.05;4.07;;;;;;;18.10;nan;61662.06;5013093;28;20172;-64
2023/08/13 02:24:41;;;;;;;6.60;4.18;;;;;;;17.87;nan;61285.03;5012938;28;20265;-64
2023/08/13 02:27:06;;;;;;;6.25;4.15;;;;;;;17.77;nan;61467.53;5013615;28;20183;-63
2023/08/13 02:29:31;;;;;;;6.63;4.35;;;;;;;17.87;nan;61630.78;5013853;28;20172;-64
2023/08/13 02:31:57;;;;;;;7.35;4.13;;;;;;;18.10;nan;61362.13;5011904;28;20642;-64
2023/08/13 02:34:23;;;;;;;7.28;4.28;;;;;;;18.05;nan;61382.91;5013426;28;20685;-64
2023/08/13 02:36:49;;;;;;;6.43;3.63;;;;;;;17.95;nan;61314.72;5013555;28;20171;-64
2023/08/13 02:39:15;;;;;;;6.55;4.43;;;;;;;17.71;nan;61439.53;5012179;28;20666;-63
2023/08/13 02:41:40;;;;;;;7.00;3.75;;;;;;;17.66;nan;61426.69;5013061;28;20282;-64
2023/08/13 02:44:06;;;;;;;6.10;4.20;;;;;;;17.79;nan;61280.59;5012675;28;20267;-63
2023/08/13 02:46:31;;;;;;;7.20;4.47;;;;;;;17.78;nan;61342.06;5011713;28;20179;-62
2023/08/13 02:48:57;;;;;;;6.68;4.70;;;;;;;17.48;nan;61226.03;5011528;28;20164;-63
2023/08/13 02:51:24;;;;;;;6.07;4.07;;;;;;;17.63;nan;61322.50;5011319;28;20183;-64
2023/08/13 02:53:50;;;;;;;7.03;4.32;;;;;;;17.47;nan;61212.03;5011705;28;20172;-63
2023/08/13 02:56:16;;;;;;;5.45;3.83;;;;;;;17.80;nan;61294.66;5011466;28;20666;-63
2023/08/13 02:58:41;;;;;;;6.05;4.28;;;;;;;17.55;nan;61292.78;5011776;28;20187;-63
2023/08/13 03:01:07;;;;;;;7.25;4.38;;;;;;;17.69;nan;61342.22;5011464;28;20200;-63
2023/08/13 03:03:33;;;;;;;7.05;4.07;;;;;;;17.57;nan;61448.03;5007842;28;20190;-63
2023/08/13 03:05:58;;;;;;;7.22;4.45;;;;;;;17.54;nan;61413.06;5013347;28;20218;-63
2023/08/13 03:08:24;;;;;;;6.70;4.05;;;;;;;17.60;nan;61363.63;5013326;28;20662;-63
2023/08/13 03:10:49;;;;;;;7.30;4.25;;;;;;;17.54;nan;61325.81;5013357;28;20174;-63
2023/08/13 03:13:15;;;;;;;5.85;4.20;;;;;;;17.40;nan;61399.81;5013114;28;20223;-63
2023/08/13 03:15:40;;;;;;;6.20;4.43;;;;;;;17.74;nan;61318.88;5013038;28;20618;-64
2023/08/13 03:18:07;;;;;;;6.88;4.07;;;;;;;17.65;nan;61315.00;5013311;28;20160;-64
2023/08/13 03:20:33;;;;;;;7.70;4.70;;;;;;;17.61;nan;61297.00;5013093;28;20273;-62
2023/08/13 03:22:59;;;;;;;6.70;4.38;;;;;;;17.61;nan;61586.38;5012976;28;20650;-63
2023/08/13 03:25:24;;;;;;;8.18;4.22;;;;;;;17.64;nan;61244.13;5013167;28;20195;-63
2023/08/13 03:27:50;;;;;;;5.60;4.35;;;;;;;17.93;nan;61355.84;5013160;28;20219;-64
2023/08/13 03:30:15;;;;;;;7.53;4.60;;;;;;;17.99;nan;61412.31;5013081;28;20207;-64
2023/08/13 03:32:41;;;;;;;7.80;4.55;;;;;;;17.88;nan;61451.56;5013097;28;20176;-64
2023/08/13 03:35:06;;;;;;;7.22;4.70;;;;;;;18.07;nan;61382.00;5012912;28;20230;-64
2023/08/13 03:37:31;;;;;;;7.55;4.53;;;;;;;17.94;nan;61489.34;5012912;28;20179;-63
2023/08/13 03:39:57;;;;;;;5.57;3.53;;;;;;;;;;5012568;28;20567;-63
2023/08/13 03:42:22;;;;;;;6.43;4.22;;;;;;;18.97;nan;61467.13;5012508;28;20179;-63
2023/08/13 03:44:47;;;;;;;7.20;4.28;;;;;;;19.53;nan;61641.41;5012828;28;20184;-63
2023/08/13 03:47:13;;;;;;;7.55;4.40;;;;;;;20.05;nan;61601.25;5012666;28;20673;-63
2023/08/13 03:49:39;;;;;;;9.75;4.07;;;;;;;20.61;nan;61663.59;5012739;28;20695;-64
2023/08/13 03:52:05;;;;;;;5.80;4.00;;;;;;;21.15;nan;61896.34;5012479;28;20184;-64
2023/08/13 03:54:31;;;;;;;9.27;4.15;;;;;;;21.66;nan;61804.97;5012215;28;20659;-64
2023/08/13 03:56:57;;;;;;;6.43;4.15;;;;;;;22.38;nan;61916.88;5012307;28;20226;-64
2023/08/13 03:59:22;;;;;;;6.03;4.18;;;;;;;22.62;nan;62071.75;5012340;28;20183;-64
2023/08/13 04:01:47;;;;;;;6.40;4.30;;;;;;;23.03;nan;61958.91;5010790;28;20207;-65
2023/08/13 04:04:13;;;;;;;5.18;3.90;;;;;;;23.75;nan;62178.00;5012092;28;20178;-64
2023/08/13 04:06:38;;;;;;;5.97;3.78;;;;;;;24.27;nan;62132.28;5012342;28;20690;-64
2023/08/13 04:09:05;;;;;;;5.18;3.60;;;;;;;24.63;nan;62168.06;5012983;28;20175;-64
2023/08/13 04:11:30;;;;;;;6.47;4.10;;;;;;;25.08;nan;62257.47;5012354;28;20168;-64
2023/08/13 04:13:56;;;;;;;7.60;4.43;;;;;;;25.69;nan;62469.91;5011411;28;20647;-64
2023/08/13 04:16:21;;;;;;;6.25;3.88;;;;;;;26.04;nan;62386.81;5012544;28;20238;-64
2023/08/13 04:18:47;;;;;;;6.57;4.00;;;;;;;26.45;nan;62598.25;5012255;28;20160;-64
2023/08/13 04:21:12;;;;;;;6.22;3.97;;;;;;;26.34;nan;62454.63;5011665;28;20211;-65
2023/08/13 04:23:38;;;;;;;5.05;4.13;;;;;;;26.72;nan;62707.88;5012442;28;20208;-65
2023/08/13 04:26:03;;;;;;;4.70;3.45;;;;;;;26.92;nan;62493.56;5012057;28;20532;-64
2023/08/13 04:28:29;;;;;;;5.82;3.92;;;;;;;26.96;nan;62524.38;5012228;28;20258;-64
2023/08/13 04:30:54;;;;;;;5.20;3.88;;;;;;;27.11;nan;62646.50;5011913;28;20195;-63
2023/08/13 04:33:21;;;;;;;5.28;3.53;;;;;;;27.19;nan;62558.56;5011943;28;20176;-63
2023/08/13 04:35:51;;;;;;;6.57;3.75;;;;;;;27.00;nan;62652.28;5011783;28;20662;-64
2023/08/13 04:38:16;;;;;;;5.80;3.78;;;;;;;27.02;nan;62489.25;5012148;28;20176;-64
2023/08/13 04:40:41;;;;;;;6.75;4.00;;;;;;;27.01;nan;62653.41;5011740;28;20649;-64
2023/08/13 04:43:07;;;;;;;7.60;3.83;;;;;;;26.53;nan;62405.56;5011993;28;20173;-64
2023/08/13 04:45:32;;;;;;;4.90;3.63;;;;;;;26.60;nan;62442.38;5011180;28;20270;-64
2023/08/13 04:47:57;;;;;;;5.05;3.72;;;;;;;26.46;nan;62625.59;5010497;28;20194;-64
2023/08/13 04:50:23;;;;;;;6.53;3.53;;;;;;;26.02;nan;62376.69;5011603;28;20198;-64
2023/08/13 04:52:48;;;;;;;5.93;3.72;;;;;;;25.92;nan;62477.88;5011748;28;20180;-64
2023/08/13 04:55:14;;;;;;;4.93;3.70;;;;;;;25.85;nan;62378.22;5014541;28;20195;-65
2023/08/13 04:57:39;;;;;;;5.85;3.60;;;;;;;25.67;nan;62273.91;5015604;28;20597;-64
2023/08/13 05:00:05;;;;;;;4.88;3.30;;;;;;;25.40;nan;62288.72;5014448;28;20230;-64
2023/08/13 05:02:31;;;;;;;6.68;3.70;;;;;;;25.04;nan;62286.91;5015498;28;20629;-64
2023/08/13 05:04:56;;;;;;;5.45;3.55;;;;;;;25.11;nan;62239.94;5015169;28;20215;-65
2023/08/13 05:07:22;;;;;;;4.75;3.40;;;;;;;24.92;nan;62228.75;5016016;28;20179;-64
2023/08/13 05:09:48;;;;;;;5.03;3.60;;;;;;;24.57;nan;62161.22;5015827;28;20323;-64
2023/08/13 05:12:13;;;;;;;7.97;3.75;;;;;;;24.52;nan;62205.19;5015593;28;20172;-64
2023/08/13 05:14:38;;;;;;;5.68;3.55;;;;;;;24.03;nan;62235.47;5015321;28;20187;-64
2023/08/13 05:17:16;;;;;;;5.43;3.30;;;;;;;23.76;nan;62085.78;5015340;28;20259;-64
2023/08/13 05:19:42;;;;;;;4.65;3.50;;;;;;;23.78;nan;62043.09;5015295;28;20211;-64
2023/08/13 05:22:07;;;;;;;6.13;4.05;;;;;;;23.82;nan;62092.03;5015571;28;20545;-63
2023/08/13 05:24:32;;;;;;;5.15;3.60;;;;;;;23.25;nan;62072.03;5014361;28;20176;-65
2023/08/13 05:26:58;;;;;;;5.35;3.63;;;;;;;23.08;nan;62035.00;5014587;28;20183;-65
2023/08/13 05:29:23;;;;;;;5.25;3.70;;;;;;;23.25;nan;61989.16;5015618;28;20227;-65
2023/08/13 05:31:48;;;;;;;4.70;3.35;;;;;;;23.19;nan;62000.03;5015226;28;20628;-64
2023/08/13 05:34:14;;;;;;;4.68;3.58;;;;;;;23.45;nan;62006.13;5014840;28;20179;-66
2023/08/13 05:36:39;;;;;;;5.05;3.38;;;;;;;23.36;nan;62149.75;5015369;28;20156;-65
2023/08/13 05:39:07;;;;;;;6.15;3.80;;;;;;;23.34;nan;62019.69;5015286;28;20172;-65
2023/08/13 05:41:32;;;;;;;4.75;3.40;;;;;;;23.39;nan;62137.53;5014060;28;20544;-67
2023/08/13 05:43:58;;;;;;;6.07;3.90;;;;;;;23.45;nan;62052.50;5015205;28;20180;-66
2023/08/13 05:46:23;;;;;;;4.53;3.60;;;;;;;23.29;nan;62003.56;5013340;28;20187;-66
2023/08/13 05:48:49;;;;;;;5.32;3.63;;;;;;;23.62;nan;62051.00;5014722;28;20647;-63
2023/08/13 05:51:14;;;;;;;5.15;3.70;;;;;;;23.64;nan;62293.31;5014534;28;20175;-64
2023/08/13 05:53:39;;;;;;;6.18;3.67;;;;;;;23.49;nan;61955.91;5014551;28;20199;-64
2023/08/13 05:56:05;;;;;;;3.85;3.15;;;;;;;23.80;nan;62130.94;5013966;28;20498;-64
2023/08/13 05:58:30;;;;;;;4.38;3.40;;;;;;;24.00;nan;62143.31;5013280;28;20231;-64
2023/08/13 06:00:55;;;;;;;5.93;3.75;;;;;;;24.05;nan;62148.97;5013857;28;20192;-66
2023/08/13 06:03:21;;;;;;;7.18;3.90;;;;;;;23.64;nan;62095.00;5014004;28;20184;-64
2023/08/13 06:05:47;;;;;;;6.10;3.53;;;;;;;23.80;nan;62074.09;5014083;28;20627;-64
2023/08/13 06:08:12;;;;;;;4.75;3.50;;;;;;;23.88;nan;62075.38;5014158;28;20734;-64
2023/08/13 06:10:38;;;;;;;6.32;3.53;;;;;;;24.07;nan;62112.66;5013845;28;20262;-65
2023/08/13 06:13:04;;;;;;;7.68;3.60;;;;;;;24.31;nan;62123.22;5012634;28;20176;-65
2023/08/13 06:15:29;;;;;;;4.85;3.35;;;;;;;24.31;nan;62259.63;5013702;28;20179;-65
2023/08/13 06:17:54;;;;;;;5.50;3.58;;;;;;;24.30;nan;62117.41;5013662;28;20195;-65
2023/08/13 06:20:20;;;;;;;5.50;3.20;;;;;;;24.35;nan;62269.41;5013640;28;20339;-65
2023/08/13 06:22:45;;;;;;;6.07;4.22;;;;;;;24.32;nan;62265.41;5013551;28;20192;-63
2023/08/13 06:25:11;;;;;;;5.13;3.40;;;;;;;24.28;nan;62112.53;5013427;28;20279;-65
2023/08/13 06:27:36;;;;;;;5.00;3.58;;;;;;;24.14;nan;62253.22;5013469;28;20231;-65
2023/08/13 06:30:02;;;;;;;3.70;3.22;;;;;;;24.29;nan;62270.38;5013503;28;20191;-64
2023/08/13 06:32:28;;;;;;;4.55;3.17;;;;;;;24.43;nan;62223.66;5013044;28;20547;-65
2023/08/13 06:34:53;;;;;;;4.28;3.15;;;;;;;25.02;nan;62243.34;5013605;28;20612;-65
2023/08/13 06:37:19;;;;;;;5.07;3.22;;;;;;;25.10;nan;62267.59;5013427;28;20176;-65
2023/08/13 06:39:45;;;;;;;4.70;3.30;;;;;;;25.36;nan;62422.28;5013624;28;20256;-65
2023/08/13 06:42:10;;;;;;;6.40;3.35;;;;;;;25.59;nan;62327.59;5013190;28;20172;-64
2023/08/13 06:44:36;;;;;;;4.97;3.00;;;;;;;24.10;nan;62217.34;5013150;28;20263;-64
2023/08/13 06:47:01;;;;;;;6.18;3.17;;;;;;;26.07;nan;62385.03;5012822;28;20180;-64
2023/08/13 06:49:26;;;;;;;5.47;3.60;;;;;;;26.43;nan;62453.84;5013197;28;20172;-65
2023/08/13 06:51:52;;;;;;;4.32;3.30;;;;;;;26.48;nan;62412.38;5013157;28;20176;-64
2023/08/13 06:54:18;;;;;;;5.18;3.40;;;;;;;26.15;nan;62412.50;5012916;28;20172;-65
2023/08/13 06:56:43;;;;;;;4.10;3.05;;;;;;;26.00;nan;62395.34;5013152;28;20172;-65
2023/08/13 06:59:09;;;;;;;4.75;2.90;;;;;;;25.43;nan;62279.06;5013135;28;20207;-65
2023/08/13 07:01:35;;;;;;;4.45;3.13;;;;;;;25.52;nan;62280.91;5012438;28;20254;-66
2023/08/13 07:04:00;;;;;;;3.58;3.08;;;;;;;25.69;nan;62449.53;5013086;28;20168;-66
2023/08/13 07:06:26;;;;;;;7.28;4.95;;;;;;;25.87;nan;62359.56;5012690;28;20173;-64
2023/08/13 07:08:51;;;;;;;5.45;3.72;;;;;;;26.00;nan;62298.44;5012936;28;20614;-65
2023/08/13 07:11:17;;;;;;;6.80;3.80;;;;;;;26.32;nan;62431.94;5012969;28;20593;-66
2023/08/13 07:13:42;;;;;;;4.53;2.90;;;;;;;26.48;nan;62483.72;5012745;28;20681;-65
2023/08/13 07:16:13;;;;;;;4.20;3.28;;;;;;;26.32;nan;62418.84;5012424;28;20565;-66
2023/08/13 07:18:39;;;;;;;4.80;3.17;;;;;;;26.78;nan;62525.31;5012138;28;20239;-66
2023/08/13 07:21:06;;;;;;;4.85;3.35;;;;;;;27.04;nan;62623.31;5012570;28;20294;-64
2023/08/13 07:23:32;;;;;;;4.53;3.20;;;;;;;27.35;nan;62605.16;5011697;28;20688;-67
2023/08/13 07:25:57;;;;;;;4.03;3.17;;;;;;;27.50;nan;62685.97;5012712;28;20203;-65
2023/08/13 07:28:34;;;;;;;3.97;3.10;;;;;;;27.16;nan;62571.44;5011289;28;20238;-66
2023/08/13 07:31:06;;;;;;;4.32;3.28;;;;;;;26.91;nan;62555.41;5010645;28;20199;-65
2023/08/13 07:33:32;;;;;;;4.88;3.50;;;;;;;27.28;nan;62628.66;5007829;28;20245;-68
2023/08/13 07:36:01;;;;;;;4.47;3.20;;;;;;;27.70;nan;62640.00;5011371;28;20188;-66
2023/08/13 07:38:27;;;;;;;4.00;3.05;;;;;;;27.54;nan;62538.25;5011713;28;20190;-67
2023/08/13 07:40:53;;;;;;;6.93;3.58;;;;;;;27.72;nan;62713.22;5010942;28;20207;-66
2023/08/13 07:43:19;;;;;;;5.78;3.25;;;;;;;27.93;nan;62666.34;5011275;28;20230;-66
2023/08/13 07:45:44;;;;;;;4.65;3.40;;;;;;;27.43;nan;62583.38;5007896;28;20171;-66
2023/08/13 07:48:09;;;;;;;4.65;3.25;;;;;;;27.13;nan;62528.66;5010689;28;20557;-66
2023/08/13 07:50:35;;;;;;;5.15;3.15;;;;;;;27.15;nan;62630.66;5009962;28;20199;-66
2023/08/13 07:53:00;;;;;;;3.28;2.63;;;;;;;27.66;nan;62683.28;5011019;28;20254;-65
2023/08/13 07:55:26;;;;;;;3.97;3.08;;;;;;;27.77;nan;62739.41;5010718;28;20243;-67
2023/08/13 07:57:51;;;;;;;4.20;2.97;;;;;;;27.50;nan;62699.09;5009796;28;20686;-67
2023/08/13 08:00:17;;;;;;;4.25;2.90;;;;;;;27.70;nan;62707.75;5011169;28;20204;-66
2023/08/13 08:02:42;;;;;;;4.20;3.22;;;;;;;27.71;nan;62724.63;5011041;28;20535;-67
2023/08/13 08:05:09;;;;;;;3.97;2.85;;;;;;;27.68;nan;62579.94;5009919;28;20210;-66
2023/08/13 08:07:34;;;;;;;4.80;3.10;;;;;;;28.13;nan;62756.47;5010292;28;20214;-65
2023/08/13 08:10:00;;;;;;;5.75;3.70;;;;;;;28.44;nan;62702.59;5011662;28;20670;-65
2023/08/13 08:12:25;;;;;;;3.85;2.90;;;;;;;28.40;nan;62832.13;5010077;28;20232;-65
2023/08/13 08:14:51;;;;;;;5.32;3.10;;;;;;;28.63;nan;62745.41;5009519;28;20226;-66
2023/08/13 08:17:16;;;;;;;5.40;3.40;;;;;;;28.89;nan;62832.59;5011027;28;20179;-68
2023/08/13 08:19:41;;;;;;;4.05;2.95;;;;;;;29.02;nan;62852.75;5009549;28;20186;-67
2023/08/13 08:22:07;;;;;;;4.25;3.03;;;;;;;28.86;nan;62829.69;5010154;28;20179;-67
2023/08/13 08:24:33;;;;;;;4.15;2.80;;;;;;;28.85;nan;62778.56;5010992;28;20183;-66
2023/08/13 08:26:58;;;;;;;4.30;3.08;;;;;;;28.76;nan;62707.16;5008902;28;20187;-66
2023/08/13 08:29:24;;;;;;;3.72;2.78;;;;;;;28.93;nan;62769.31;5010346;28;20698;-65
2023/08/13 08:31:49;;;;;;;3.47;2.65;;;;;;;28.55;nan;62770.44;5009452;28;20598;-65
2023/08/13 08:34:15;;;;;;;4.43;2.85;;;;;;;28.35;nan;62621.88;5010489;28;20180;-66
2023/08/13 08:36:40;;;;;;;4.00;2.60;;;;;;;28.55;nan;62780.97;5011805;28;20278;-66
2023/08/13 08:39:06;;;;;;;4.25;2.95;;;;;;;28.71;nan;62736.22;5010578;28;20191;-65
2023/08/13 08:41:35;;;;;;;3.67;2.55;;;;;;;28.75;nan;62806.56;5009600;28;20204;-65
2023/08/13 08:44:00;;;;;;;3.65;2.92;;;;;;;28.65;nan;62726.09;5010212;28;20187;-67
2023/08/13 08:46:27;;;;;;;4.93;2.97;;;;;;;28.68;nan;62713.75;5010789;28;20285;-69
2023/08/13 08:48:53;;;;;;;4.47;3.15;;;;;;;28.97;nan;62912.81;5008962;28;20266;-66
2023/08/13 08:51:21;;;;;;;3.92;2.53;;;;;;;29.14;nan;62826.47;5010159;28;20270;-70
2023/08/13 08:53:49;;;;;;;4.07;2.80;;;;;;;29.17;nan;62830.50;5009613;28;20183;-65
2023/08/13 08:56:16;;;;;;;4.68;2.92;;;;;;;29.33;nan;62888.34;5010015;28;20179;-64
2023/08/13 08:58:41;;;;;;;4.95;2.80;;;;;;;29.15;nan;62865.03;5010137;28;20187;-64
2023/08/13 09:01:07;;;;;;;4.93;2.88;;;;;;;28.94;nan;62725.16;5010026;28;20222;-64
2023/08/13 09:03:32;;;;;;;4.00;2.83;;;;;;;29.22;nan;62854.09;5009527;28;20187;-65
2023/08/13 09:05:58;;;;;;;4.00;2.63;;;;;;;29.12;nan;62974.81;5009333;28;20222;-65
2023/08/13 09:08:23;;;;;;;3.80;3.00;;;;;;;29.24;nan;62948.53;5010355;28;20183;-65
2023/08/13 09:10:49;;;;;;;5.07;3.00;;;;;;;28.90;nan;62747.44;5009276;28;20272;-66
2023/08/13 09:13:14;;;;;;;5.38;2.90;;;;;;;28.75;nan;62769.72;5011599;28;20653;-67
2023/08/13 09:15:49;;;;;;;3.80;2.97;;;;;;;28.67;nan;62750.00;5011343;28;20237;-65
2023/08/13 09:18:16;;;;;;;4.38;3.17;;;;;;;28.94;nan;62806.72;5010968;28;20175;-65
2023/08/13 09:20:46;;;;;;;6.18;3.30;;;;;;;28.92;nan;62855.00;5010913;28;20290;-64
2023/08/13 09:23:22;;;;;;;7.88;3.88;;;;;;;28.22;nan;62769.41;5009305;28;20218;-65
2023/08/13 09:25:53;;;;;;;11.40;5.57;;;;;;;27.86;nan;62616.28;5009824;28;20179;-65
2023/08/13 09:28:19;;;;;;;11.05;4.20;;;;;;;27.85;nan;62636.16;5010289;28;20266;-69
2023/08/13 09:30:45;;;;;;;5.28;3.28;;;;;;;28.05;nan;62663.75;5009432;28;20192;-64
2023/08/13 09:33:13;;;;;;;42.35;15.10;;;;;;;27.85;nan;62704.47;5010385;28;20647;-65
2023/08/13 09:35:40;;;;;;;13.50;6.43;;;;;;;27.86;nan;62731.91;5010007;28;20590;-64
2023/08/13 09:38:05;;;;;;;23.35;8.30;;;;;;;28.14;nan;62783.91;5003297;28;20195;-65
2023/08/13 09:40:31;;;;;;;51.20;18.25;;;;;;;28.44;nan;62708.44;5011436;28;20207;-66
2023/08/13 09:42:58;;;;;;;39.67;13.32;;;;;;;28.64;nan;62728.16;5013796;28;20267;-66
2023/08/13 09:45:28;;;;;;;21.80;7.22;;;;;;;28.55;nan;62860.44;5013263;28;20192;-66
2023/08/13 09:47:55;;;;;;;9.88;4.88;;;;;;;29.08;nan;62927.53;5011685;28;20234;-66
2023/08/13 09:50:22;;;;;;;11.25;5.70;;;;;;;29.18;nan;62976.44;5012824;28;20188;-65
2023/08/13 09:52:48;;;;;;;40.42;14.55;;;;;;;29.50;nan;62862.53;5012990;28;20596;-67
2023/08/13 09:55:17;;;;;;;77.22;24.17;;;;;;;29.46;nan;62878.44;5011972;28;20264;-67
2023/08/13 09:57:43;;;;;;;77.45;25.02;;;;;;;29.16;nan;62805.06;5012712;28;20175;-67
2023/08/13 10:00:11;;;;;;;13.38;6.60;;;;;;;29.17;nan;62954.22;5013238;28;20652;-67
2023/08/13 10:02:38;;;;;;;64.68;20.40;;;;;;;29.04;nan;62817.63;5012246;28;20734;-66
2023/08/13 10:05:04;;;;;;;85.28;29.33;;;;;;;28.90;nan;62910.59;5003748;28;20183;-67
2023/08/13 10:07:31;;;;;;;57.03;21.52;;;;;;;29.02;nan;62873.81;5013042;28;20261;-66
2023/08/13 10:09:59;;;;;;;95.65;28.77;;;;;;;28.89;nan;62904.22;5012660;28;20333;-65
2023/08/13 10:12:25;;;;;;;28.73;10.05;;;;;;;28.94;nan;62820.47;5014803;28;20270;-65
2023/08/13 10:14:50;;;;;;;90.93;28.90;;;;;;;28.86;nan;62734.38;5013698;28;20753;-64
2023/08/13 10:17:19;;;;;;;39.05;15.07;;;;;;;28.85;nan;62806.94;5012358;28;20237;-66
2023/08/13 10:19:49;;;;;;;28.08;9.35;;;;;;;28.79;nan;62860.56;5013334;28;20183;-64
2023/08/13 10:22:22;;;;;;;26.38;9.07;;;;;;;28.98;nan;62858.69;5013977;28;20249;-65
2023/08/13 10:24:48;;;;;;;26.85;11.73;;;;;;;29.10;nan;62851.41;5012865;28;20175;-66
2023/08/13 10:27:14;;;;;;;35.10;13.13;;;;;;;29.18;nan;62821.09;5013508;28;20677;-64
2023/08/13 10:29:42;;;;;;;74.72;25.13;;;;;;;29.11;nan;62905.22;5010775;28;20214;-66
2023/08/13 10:32:15;;;;;;;45.83;17.67;;;;;;;29.10;nan;62840.88;5012182;28;20183;-66
2023/08/13 10:34:50;;;;;;;39.90;14.68;;;;;;;29.44;nan;62937.28;5013017;28;20255;-66
2023/08/13 10:37:16;;;;;;;24.98;9.27;;;;;;;29.27;nan;62907.78;5012271;28;20186;-66
2023/08/13 10:39:42;;;;;;;37.40;13.43;;;;;;;29.53;nan;62976.03;5013404;28;20558;-67
2023/08/13 10:42:26;;;;;;;33.25;11.68;;;;;;;29.59;nan;62927.59;5012281;28;20245;-66
2023/08/13 10:44:53;;;;;;;33.00;11.88;;;;;;;29.98;nan;62977.13;5010907;28;20199;-65
2023/08/13 10:47:18;;;;;;;51.55;18.13;;;;;;;29.19;nan;62964.41;5011615;28;20206;-65
2023/08/13 10:49:44;;;;;;;22.58;9.20;;;;;;;30.25;nan;62994.94;5011429;28;20223;-66
2023/08/13 10:52:13;;;;;;;30.65;11.80;;;;;;;29.99;nan;62920.28;5010452;28;20174;-64
2023/08/13 10:54:39;;;;;;;10.90;5.20;;;;;;;29.63;nan;62892.69;4992066;28;20176;-64
2023/08/13 10:57:05;;;;;;;24.15;9.15;;;;;;;29.92;nan;62960.25;4991444;28;20172;-66
2023/08/13 10:59:33;;;;;;;15.93;5.50;;;;;;;29.85;nan;62994.94;4992132;28;20179;-66
2023/08/13 11:02:15;;;;;;;23.55;8.85;;;;;;;30.05;nan;63006.25;5000046;28;20222;-65
2023/08/13 11:04:42;;;;;;;12.15;5.50;;;;;;;30.01;nan;62901.47;5013061;28;20176;-65
2023/08/13 11:07:09;;;;;;;7.38;3.85;;;;;;;30.12;nan;63085.50;5012852;28;20179;-64
2023/08/13 11:09:36;;;;;;;6.95;3.60;;;;;;;30.23;nan;63037.50;5012386;28;20201;-65
2023/08/13 11:12:01;;;;;;;8.85;4.45;;;;;;;30.36;nan;63078.84;5013223;28;20168;-65
2023/08/13 11:14:28;;;;;;;9.52;4.75;;;;;;;30.61;nan;63149.28;5012110;28;20659;-65
2023/08/13 11:16:54;;;;;;;13.65;5.63;;;;;;;30.39;nan;63058.53;5012467;28;20221;-65
2023/08/13 11:19:19;;;;;;;9.60;4.30;;;;;;;30.16;nan;63043.22;5012486;28;20172;-66
2023/08/13 11:21:45;;;;;;;15.85;6.68;;;;;;;30.52;nan;63049.19;5011930;28;20204;-66
2023/08/13 11:24:12;;;;;;;6.18;3.80;;;;;;;30.42;nan;63040.88;5012170;28;20553;-66
2023/08/13 11:26:39;;;;;;;5.63;3.45;;;;;;;30.49;nan;63009.38;5012615;28;20650;-66
2023/08/13 11:29:05;;;;;;;9.13;4.50;;;;;;;30.54;nan;63173.44;5010762;28;20231;-66
2023/08/13 11:31:33;;;;;;;4.05;2.97;;;;;;;30.48;nan;63058.34;5012345;28;20718;-67
2023/08/13 11:33:58;;;;;;;9.45;3.85;;;;;;;30.06;nan;62992.16;5011834;28;20187;-66
2023/08/13 11:36:24;;;;;;;4.95;3.05;;;;;;;29.99;nan;62994.66;5012074;28;20285;-67
2023/08/13 11:38:50;;;;;;;3.90;2.83;;;;;;;30.05;nan;62985.16;5012325;28;20179;-66
2023/08/13 11:41:15;;;;;;;9.23;4.63;;;;;;;30.17;nan;63015.34;5010261;28;20198;-66
2023/08/13 11:43:41;;;;;;;9.05;3.78;;;;;;;30.54;nan;63118.03;5012144;28;20241;-65
2023/08/13 11:46:07;;;;;;;5.80;3.60;;;;;;;30.45;nan;63043.75;5012217;28;20186;-65